sensor_id;sensor_type;location;lat;lon;timestamp;pressure;altitude;pressure_sealevel;temperature;humidity
62942;BME280;49042;47.318;19.874;2022-08-21T00:00:27;99800.00;;;19.72;100.00
62942;BME280;49042;47.318;19.874;2022-08-21T00:03:29;99805.69;;;19.50;100.00
62942;BME280;49042;47.318;19.874;2022-08-21T00:06:31;99809.41;;;19.36;100.00
62942;BME280;49042;47.318;19.874;2022-08-21T00:09:35;99811.63;;;19.63;100.00
62942;BME280;49042;47.318;19.874;2022-08-21T00:12:37;99802.28;;;19.43;100.00
62942;BME280;49042;47.318;19.874;2022-08-21T00:15:40;99790.34;;;19.69;100.00
62942;BME280;49042;47.318;19.874;2022-08-21T00:18:42;99796.50;;;19.72;100.00
62942;BME280;49042;47.318;19.874;2022-08-21T00:21:44;99784.75;;;19.88;100.00
62942;BME280;49042;47.318;19.874;2022-08-21T00:24:46;99780.06;;;19.54;100.00
62942;BME280;49042;47.318;19.874;2022-08-21T00:28:07;99781.13;;;19.43;100.00
62942;BME280;49042;47.318;19.874;2022-08-21T00:31:09;99778.25;;;19.56;100.00
62942;BME280;49042;47.318;19.874;2022-08-21T00:34:13;99779.25;;;19.50;100.00
62942;BME280;49042;47.318;19.874;2022-08-21T00:37:14;99780.72;;;19.10;100.00
62942;BME280;49042;47.318;19.874;2022-08-21T00:40:20;99775.62;;;18.96;100.00
62942;BME280;49042;47.318;19.874;2022-08-21T00:43:28;99776.19;;;19.18;100.00
62942;BME280;49042;47.318;19.874;2022-08-21T00:46:30;99779.69;;;19.22;100.00
62942;BME280;49042;47.318;19.874;2022-08-21T00:49:32;99769.91;;;19.27;100.00
62942;BME280;49042;47.318;19.874;2022-08-21T00:52:36;99769.72;;;19.38;100.00
62942;BME280;49042;47.318;19.874;2022-08-21T00:55:40;99775.28;;;19.19;100.00
62942;BME280;49042;47.318;19.874;2022-08-21T00:58:43;99773.41;;;19.29;100.00
62942;BME280;49042;47.318;19.874;2022-08-21T01:01:47;99772.59;;;19.25;100.00
62942;BME280;49042;47.318;19.874;2022-08-21T01:04:49;99768.12;;;19.28;100.00
62942;BME280;49042;47.318;19.874;2022-08-21T01:07:51;99770.84;;;19.20;100.00
62942;BME280;49042;47.318;19.874;2022-08-21T01:10:53;99766.38;;;19.28;100.00
62942;BME280;49042;47.318;19.874;2022-08-21T01:13:55;99768.16;;;19.26;100.00
62942;BME280;49042;47.318;19.874;2022-08-21T01:16:58;99767.34;;;19.19;100.00
62942;BME280;49042;47.318;19.874;2022-08-21T01:20:05;99766.22;;;19.37;100.00
62942;BME280;49042;47.318;19.874;2022-08-21T01:23:07;99771.19;;;19.56;100.00
62942;BME280;49042;47.318;19.874;2022-08-21T01:26:10;99770.06;;;19.70;100.00
62942;BME280;49042;47.318;19.874;2022-08-21T01:29:14;99769.25;;;19.68;100.00
62942;BME280;49042;47.318;19.874;2022-08-21T01:32:19;99759.59;;;19.64;100.00
62942;BME280;49042;47.318;19.874;2022-08-21T01:35:21;99761.38;;;19.63;100.00
62942;BME280;49042;47.318;19.874;2022-08-21T01:38:23;99763.06;;;19.67;100.00
62942;BME280;49042;47.318;19.874;2022-08-21T01:41:27;99763.31;;;19.52;100.00
62942;BME280;49042;47.318;19.874;2022-08-21T01:44:29;99761.56;;;19.52;100.00
62942;BME280;49042;47.318;19.874;2022-08-21T01:47:31;99758.16;;;19.44;100.00
62942;BME280;49042;47.318;19.874;2022-08-21T01:50:34;99754.09;;;19.25;100.00
62942;BME280;49042;47.318;19.874;2022-08-21T01:53:37;99757.13;;;18.96;100.00
62942;BME280;49042;47.318;19.874;2022-08-21T01:56:43;99737.13;;;18.79;100.00
62942;BME280;49042;47.318;19.874;2022-08-21T01:59:46;99749.31;;;18.89;100.00
62942;BME280;49042;47.318;19.874;2022-08-21T02:02:48;99751.06;;;18.89;100.00
62942;BME280;49042;47.318;19.874;2022-08-21T02:05:50;99747.59;;;18.85;100.00
62942;BME280;49042;47.318;19.874;2022-08-21T02:08:52;99751.84;;;18.97;100.00
62942;BME280;49042;47.318;19.874;2022-08-21T02:11:54;99738.78;;;18.86;100.00
62942;BME280;49042;47.318;19.874;2022-08-21T02:14:56;99735.25;;;18.86;100.00
62942;BME280;49042;47.318;19.874;2022-08-21T02:18:00;99723.16;;;18.70;100.00
62942;BME280;49042;47.318;19.874;2022-08-21T02:21:03;99724.22;;;18.58;100.00
62942;BME280;49042;47.318;19.874;2022-08-21T02:24:06;99731.31;;;18.55;100.00
62942;BME280;49042;47.318;19.874;2022-08-21T02:27:08;99722.41;;;18.59;100.00
62942;BME280;49042;47.318;19.874;2022-08-21T02:30:16;99722.50;;;18.52;100.00
62942;BME280;49042;47.318;19.874;2022-08-21T02:33:19;99735.63;;;18.59;100.00
62942;BME280;49042;47.318;19.874;2022-08-21T02:36:21;99730.34;;;18.60;100.00
62942;BME280;49042;47.318;19.874;2022-08-21T02:39:23;99730.16;;;18.73;100.00
62942;BME280;49042;47.318;19.874;2022-08-21T02:42:28;99728.72;;;18.51;100.00
62942;BME280;49042;47.318;19.874;2022-08-21T02:45:33;99723.28;;;18.59;100.00
62942;BME280;49042;47.318;19.874;2022-08-21T02:48:36;99725.03;;;18.62;100.00
62942;BME280;49042;47.318;19.874;2022-08-21T02:51:38;99724.03;;;18.71;100.00
62942;BME280;49042;47.318;19.874;2022-08-21T02:54:40;99724.13;;;18.63;100.00
62942;BME280;49042;47.318;19.874;2022-08-21T02:57:42;99723.19;;;18.67;100.00
62942;BME280;49042;47.318;19.874;2022-08-21T03:00:44;99731.22;;;18.59;100.00
62942;BME280;49042;47.318;19.874;2022-08-21T03:03:47;99730.25;;;18.67;100.00
62942;BME280;49042;47.318;19.874;2022-08-21T03:06:52;99729.31;;;18.71;100.00
62942;BME280;49042;47.318;19.874;2022-08-21T03:09:54;99727.66;;;18.64;100.00
62942;BME280;49042;47.318;19.874;2022-08-21T03:12:56;99727.81;;;18.51;100.00
62942;BME280;49042;47.318;19.874;2022-08-21T03:15:59;99723.44;;;18.48;100.00
62942;BME280;49042;47.318;19.874;2022-08-21T03:19:01;99717.19;;;18.57;100.00
62942;BME280;49042;47.318;19.874;2022-08-21T03:22:05;99723.28;;;18.61;100.00
62942;BME280;49042;47.318;19.874;2022-08-21T03:25:07;99722.47;;;18.57;100.00
62942;BME280;49042;47.318;19.874;2022-08-21T03:28:19;99721.53;;;18.60;100.00
62942;BME280;49042;47.318;19.874;2022-08-21T03:31:23;99721.63;;;18.52;100.00
62942;BME280;49042;47.318;19.874;2022-08-21T03:34:25;99716.34;;;18.52;100.00
62942;BME280;49042;47.318;19.874;2022-08-21T03:37:28;99718.97;;;18.54;100.00
62942;BME280;49042;47.318;19.874;2022-08-21T03:40:30;99722.53;;;18.51;100.00
62942;BME280;49042;47.318;19.874;2022-08-21T03:43:32;99729.34;;;18.68;100.00
62942;BME280;49042;47.318;19.874;2022-08-21T03:46:34;99734.87;;;18.50;100.00
62942;BME280;49042;47.318;19.874;2022-08-21T03:49:36;99730.44;;;18.52;100.00
62942;BME280;49042;47.318;19.874;2022-08-21T03:52:38;99730.53;;;18.45;100.00
62942;BME280;49042;47.318;19.874;2022-08-21T03:55:40;99734.00;;;18.51;100.00
62942;BME280;49042;47.318;19.874;2022-08-21T03:58:42;99738.34;;;18.54;100.00
62942;BME280;49042;47.318;19.874;2022-08-21T04:01:56;99741.91;;;18.51;100.00
62942;BME280;49042;47.318;19.874;2022-08-21T04:04:58;99739.28;;;18.51;100.00
62942;BME280;49042;47.318;19.874;2022-08-21T04:08:03;99741.09;;;18.46;100.00
62942;BME280;49042;47.318;19.874;2022-08-21T04:11:06;99748.91;;;18.52;100.00
62942;BME280;49042;47.318;19.874;2022-08-21T04:14:08;99754.09;;;18.62;100.00
62942;BME280;49042;47.318;19.874;2022-08-21T04:17:09;99750.34;;;18.79;100.00
62942;BME280;49042;47.318;19.874;2022-08-21T04:20:11;99753.16;;;18.65;100.00
62942;BME280;49042;47.318;19.874;2022-08-21T04:23:32;99754.16;;;18.56;100.00
62942;BME280;49042;47.318;19.874;2022-08-21T04:26:35;99761.69;;;18.84;100.00
62942;BME280;49042;47.318;19.874;2022-08-21T04:29:37;99760.72;;;18.91;100.00
62942;BME280;49042;47.318;19.874;2022-08-21T04:32:48;99764.56;;;18.67;100.00
62942;BME280;49042;47.318;19.874;2022-08-21T04:35:50;99768.91;;;18.72;100.00
62942;BME280;49042;47.318;19.874;2022-08-21T04:38:53;99766.75;;;19.00;100.00
62942;BME280;49042;47.318;19.874;2022-08-21T04:41:55;99770.13;;;19.11;100.00
62942;BME280;49042;47.318;19.874;2022-08-21T04:44:57;99771.31;;;18.90;100.00
62942;BME280;49042;47.318;19.874;2022-08-21T04:48:02;99771.31;;;18.88;100.00
62942;BME280;49042;47.318;19.874;2022-08-21T04:51:11;99768.81;;;18.79;100.00
62942;BME280;49042;47.318;19.874;2022-08-21T04:54:18;99762.66;;;18.77;100.00
62942;BME280;49042;47.318;19.874;2022-08-21T04:57:20;99773.97;;;18.90;100.00
62942;BME280;49042;47.318;19.874;2022-08-21T05:00:40;99784.69;;;18.79;100.00
62942;BME280;49042;47.318;19.874;2022-08-21T05:03:42;99777.44;;;18.92;100.00
62942;BME280;49042;47.318;19.874;2022-08-21T05:06:47;99784.53;;;18.88;100.00
62942;BME280;49042;47.318;19.874;2022-08-21T05:09:50;99792.44;;;18.90;100.00
62942;BME280;49042;47.318;19.874;2022-08-21T05:12:53;99793.38;;;18.86;100.00
62942;BME280;49042;47.318;19.874;2022-08-21T05:15:55;99792.59;;;18.79;100.00
62942;BME280;49042;47.318;19.874;2022-08-21T05:18:57;99793.38;;;18.86;100.00
62942;BME280;49042;47.318;19.874;2022-08-21T05:21:59;99794.13;;;18.96;100.00
62942;BME280;49042;47.318;19.874;2022-08-21T05:25:03;99795.16;;;18.87;100.00
62942;BME280;49042;47.318;19.874;2022-08-21T05:28:11;99797.78;;;18.83;100.00
62942;BME280;49042;47.318;19.874;2022-08-21T05:31:13;99798.41;;;19.04;100.00
62942;BME280;49042;47.318;19.874;2022-08-21T05:34:20;99808.88;;;19.11;100.00
62942;BME280;49042;47.318;19.874;2022-08-21T05:37:22;99810.44;;;19.28;100.00
62942;BME280;49042;47.318;19.874;2022-08-21T05:40:24;99810.75;;;19.02;100.00
62942;BME280;49042;47.318;19.874;2022-08-21T05:43:27;99808.78;;;19.17;100.00
62942;BME280;49042;47.318;19.874;2022-08-21T05:46:29;99814.22;;;19.08;100.00
62942;BME280;49042;47.318;19.874;2022-08-21T05:49:31;99822.22;;;19.03;100.00
62942;BME280;49042;47.318;19.874;2022-08-21T05:52:33;99814.41;;;18.93;100.00
62942;BME280;49042;47.318;19.874;2022-08-21T05:55:36;99818.78;;;18.96;100.00
62942;BME280;49042;47.318;19.874;2022-08-21T05:58:45;99818.91;;;18.87;100.00
62942;BME280;49042;47.318;19.874;2022-08-21T06:01:47;99819.63;;;19.00;100.00
62942;BME280;49042;47.318;19.874;2022-08-21T06:04:49;99823.97;;;19.04;100.00
62942;BME280;49042;47.318;19.874;2022-08-21T06:07:51;99820.41;;;19.05;100.00
62942;BME280;49042;47.318;19.874;2022-08-21T06:10:55;99825.72;;;19.03;100.00
62942;BME280;49042;47.318;19.874;2022-08-21T06:13:58;99823.03;;;19.07;100.00
62942;BME280;49042;47.318;19.874;2022-08-21T06:17:05;99817.97;;;18.91;100.00
62942;BME280;49042;47.318;19.874;2022-08-21T06:20:08;99813.50;;;18.96;100.00
62942;BME280;49042;47.318;19.874;2022-08-21T06:23:09;99806.25;;;19.09;100.00
62942;BME280;49042;47.318;19.874;2022-08-21T06:26:13;99807.06;;;19.14;100.00
62942;BME280;49042;47.318;19.874;2022-08-21T06:29:15;99814.19;;;19.09;100.00
62942;BME280;49042;47.318;19.874;2022-08-21T06:32:21;99807.91;;;19.18;100.00
62942;BME280;49042;47.318;19.874;2022-08-21T06:35:23;99814.88;;;19.24;100.00
62942;BME280;49042;47.318;19.874;2022-08-21T06:38:26;99813.09;;;19.26;100.00
62942;BME280;49042;47.318;19.874;2022-08-21T06:41:29;99812.25;;;19.25;100.00
62942;BME280;49042;47.318;19.874;2022-08-21T06:44:39;99813.03;;;19.31;100.00
62942;BME280;49042;47.318;19.874;2022-08-21T06:47:41;99809.31;;;19.43;100.00
62942;BME280;49042;47.318;19.874;2022-08-21T06:50:42;99806.62;;;19.44;100.00
62942;BME280;49042;47.318;19.874;2022-08-21T06:53:45;99812.03;;;19.40;100.00
62942;BME280;49042;47.318;19.874;2022-08-21T06:56:47;99799.47;;;19.51;100.00
62942;BME280;49042;47.318;19.874;2022-08-21T06:59:49;99800.47;;;19.44;100.00
62942;BME280;49042;47.318;19.874;2022-08-21T07:02:51;99802.28;;;19.43;100.00
62942;BME280;49042;47.318;19.874;2022-08-21T07:05:53;99797.00;;;19.40;100.00
62942;BME280;49042;47.318;19.874;2022-08-21T07:08:55;99804.00;;;19.44;100.00
62942;BME280;49042;47.318;19.874;2022-08-21T07:11:59;99790.44;;;19.65;100.00
62942;BME280;49042;47.318;19.874;2022-08-21T07:15:02;99800.12;;;19.66;100.00
62942;BME280;49042;47.318;19.874;2022-08-21T07:18:05;99795.66;;;19.69;100.00
62942;BME280;49042;47.318;19.874;2022-08-21T07:21:08;99778.47;;;19.94;100.00
62942;BME280;49042;47.318;19.874;2022-08-21T07:24:10;99775.06;;;19.87;100.00
62942;BME280;49042;47.318;19.874;2022-08-21T07:27:12;99778.00;;;19.72;100.00
62942;BME280;49042;47.318;19.874;2022-08-21T07:30:16;99768.38;;;19.66;100.00
62942;BME280;49042;47.318;19.874;2022-08-21T07:33:18;99772.84;;;19.62;100.00
62942;BME280;49042;47.318;19.874;2022-08-21T07:36:20;99777.00;;;19.76;100.00
62942;BME280;49042;47.318;19.874;2022-08-21T07:39:22;99770.75;;;19.82;100.00
62942;BME280;49042;47.318;19.874;2022-08-21T07:42:24;99774.38;;;19.76;100.00
62942;BME280;49042;47.318;19.874;2022-08-21T07:45:26;99774.66;;;19.58;100.00
62942;BME280;49042;47.318;19.874;2022-08-21T07:48:28;99775.59;;;19.56;100.00
62942;BME280;49042;47.318;19.874;2022-08-21T07:51:30;99779.91;;;19.63;100.00
62942;BME280;49042;47.318;19.874;2022-08-21T07:54:32;99773.34;;;19.83;100.00
62942;BME280;49042;47.318;19.874;2022-08-21T07:57:35;99771.66;;;19.79;100.00
62942;BME280;49042;47.318;19.874;2022-08-21T08:00:37;99770.84;;;19.77;100.00
62942;BME280;49042;47.318;19.874;2022-08-21T08:03:39;99772.44;;;19.86;100.00
62942;BME280;49042;47.318;19.874;2022-08-21T08:06:41;99783.69;;;19.99;100.00
62942;BME280;49042;47.318;19.874;2022-08-21T08:09:43;99778.91;;;20.20;100.00
62942;BME280;49042;47.318;19.874;2022-08-21T08:12:46;99776.62;;;19.98;100.00
62942;BME280;49042;47.318;19.874;2022-08-21T08:15:48;99779.91;;;20.11;100.00
62942;BME280;49042;47.318;19.874;2022-08-21T08:18:50;99788.66;;;20.15;100.00
62942;BME280;49042;47.318;19.874;2022-08-21T08:21:52;99780.13;;;20.00;100.00
62942;BME280;49042;47.318;19.874;2022-08-21T08:24:55;99785.44;;;19.98;100.00
62942;BME280;49042;47.318;19.874;2022-08-21T08:27:57;99783.59;;;20.02;100.00
62942;BME280;49042;47.318;19.874;2022-08-21T08:31:00;99777.44;;;20.01;100.00
62942;BME280;49042;47.318;19.874;2022-08-21T08:34:02;99788.97;;;19.97;100.00
62942;BME280;49042;47.318;19.874;2022-08-21T08:37:07;99787.00;;;20.10;100.00
62942;BME280;49042;47.318;19.874;2022-08-21T08:40:12;99786.00;;;20.15;100.00
62942;BME280;49042;47.318;19.874;2022-08-21T08:43:15;99781.50;;;20.21;100.00
62942;BME280;49042;47.318;19.874;2022-08-21T08:46:20;99790.28;;;20.24;100.00
62942;BME280;49042;47.318;19.874;2022-08-21T08:52:33;99774.78;;;20.49;100.00
62942;BME280;49042;47.318;19.874;2022-08-21T08:55:39;99780.22;;;20.41;100.00
62942;BME280;49042;47.318;19.874;2022-08-21T08:58:44;99782.88;;;20.41;100.00
62942;BME280;49042;47.318;19.874;2022-08-21T09:01:46;99778.19;;;20.54;100.00
62942;BME280;49042;47.318;19.874;2022-08-21T09:04:50;99780.63;;;20.64;100.00
62942;BME280;49042;47.318;19.874;2022-08-21T09:08:29;99777.09;;;20.65;100.00
62942;BME280;49042;47.318;19.874;2022-08-21T09:11:57;99780.31;;;20.80;100.00
62942;BME280;49042;47.318;19.874;2022-08-21T09:15:21;99786.31;;;20.88;100.00
62942;BME280;49042;47.318;19.874;2022-08-21T09:25:41;99791.12;;;21.10;100.00
62942;BME280;49042;47.318;19.874;2022-08-21T09:28:44;99788.22;;;21.23;98.78
62942;BME280;49042;47.318;19.874;2022-08-21T09:31:46;99789.66;;;21.71;97.29
62942;BME280;49042;47.318;19.874;2022-08-21T09:35:02;99793.22;;;21.70;96.40
62942;BME280;49042;47.318;19.874;2022-08-21T09:38:06;99785.16;;;21.74;94.95
62942;BME280;49042;47.318;19.874;2022-08-21T09:41:09;99785.66;;;21.55;95.11
62942;BME280;49042;47.318;19.874;2022-08-21T09:44:12;99784.59;;;21.62;94.77
62942;BME280;49042;47.318;19.874;2022-08-21T09:47:13;99783.72;;;21.61;95.95
62942;BME280;49042;47.318;19.874;2022-08-21T09:50:21;99785.38;;;21.31;96.04
62942;BME280;49042;47.318;19.874;2022-08-21T09:53:28;99787.16;;;21.30;96.72
62942;BME280;49042;47.318;19.874;2022-08-21T09:56:51;99780.09;;;21.29;97.33
62942;BME280;49042;47.318;19.874;2022-08-21T10:00:26;99788.22;;;21.23;98.26
62942;BME280;49042;47.318;19.874;2022-08-21T10:03:28;99783.66;;;21.28;97.18
62942;BME280;49042;47.318;19.874;2022-08-21T10:06:30;99792.00;;;21.12;99.69
62942;BME280;49042;47.318;19.874;2022-08-21T10:09:32;99794.56;;;21.15;100.00
62942;BME280;49042;47.318;19.874;2022-08-21T10:15:53;99790.22;;;21.11;100.00
62942;BME280;49042;47.318;19.874;2022-08-21T10:33:23;99799.00;;;21.87;97.09
62942;BME280;49042;47.318;19.874;2022-08-21T10:49:56;99801.38;;;22.31;95.16
62942;BME280;49042;47.318;19.874;2022-08-21T10:56:29;99798.31;;;21.80;94.61
62942;BME280;49042;47.318;19.874;2022-08-21T10:59:39;99794.63;;;21.84;96.03
62942;BME280;49042;47.318;19.874;2022-08-21T11:02:58;99793.50;;;21.95;95.38
62942;BME280;49042;47.318;19.874;2022-08-21T11:06:16;99794.94;;;22.40;94.65
62942;BME280;49042;47.318;19.874;2022-08-21T11:09:23;99794.16;;;22.36;93.01
62942;BME280;49042;47.318;19.874;2022-08-21T11:12:39;99785.03;;;22.13;92.56
62942;BME280;49042;47.318;19.874;2022-08-21T11:15:52;99794.38;;;22.29;92.48
62942;BME280;49042;47.318;19.874;2022-08-21T11:19:09;99790.44;;;22.10;94.16
62942;BME280;49042;47.318;19.874;2022-08-21T11:22:21;99787.03;;;22.05;93.54
62942;BME280;49042;47.318;19.874;2022-08-21T11:29:01;99790.72;;;22.33;93.04
62942;BME280;49042;47.318;19.874;2022-08-21T11:35:35;99788.94;;;22.94;89.56
62942;BME280;49042;47.318;19.874;2022-08-21T11:38:54;99786.75;;;22.78;89.23
62942;BME280;49042;47.318;19.874;2022-08-21T11:42:04;99781.19;;;23.15;88.09
62942;BME280;49042;47.318;19.874;2022-08-21T11:55:32;99771.53;;;21.88;95.48
62942;BME280;49042;47.318;19.874;2022-08-21T11:58:40;99766.75;;;21.69;98.03
62942;BME280;49042;47.318;19.874;2022-08-21T12:01:45;99769.47;;;21.66;98.35
62942;BME280;49042;47.318;19.874;2022-08-21T12:05:00;99761.62;;;21.61;99.17
62942;BME280;49042;47.318;19.874;2022-08-21T12:08:11;99768.03;;;21.87;100.00
62942;BME280;49042;47.318;19.874;2022-08-21T12:14:18;99764.19;;;21.99;100.00
62942;BME280;49042;47.318;19.874;2022-08-21T12:17:23;99749.59;;;21.81;100.00
62942;BME280;49042;47.318;19.874;2022-08-21T12:23:46;99749.31;;;22.25;98.78
62942;BME280;49042;47.318;19.874;2022-08-21T12:26:49;99746.69;;;22.24;95.70
62942;BME280;49042;47.318;19.874;2022-08-21T12:29:58;99755.09;;;22.08;96.66
62942;BME280;49042;47.318;19.874;2022-08-21T12:33:17;99749.56;;;22.78;93.21
62942;BME280;49042;47.318;19.874;2022-08-21T12:36:24;99736.56;;;22.37;93.55
62942;BME280;49042;47.318;19.874;2022-08-21T12:39:29;99742.59;;;22.74;91.99
62942;BME280;49042;47.318;19.874;2022-08-21T12:42:38;99727.47;;;22.16;91.81
62942;BME280;49042;47.318;19.874;2022-08-21T12:45:44;99723.78;;;22.20;93.88
62942;BME280;49042;47.318;19.874;2022-08-21T12:48:59;99725.94;;;22.07;94.75
62942;BME280;49042;47.318;19.874;2022-08-21T12:52:16;99723.03;;;22.46;94.79
62942;BME280;49042;47.318;19.874;2022-08-21T12:55:27;99723.38;;;22.03;98.89
62942;BME280;49042;47.318;19.874;2022-08-21T12:58:30;99715.78;;;21.88;98.04
62942;BME280;49042;47.318;19.874;2022-08-21T13:01:45;99703.34;;;21.91;99.68
62942;BME280;49042;47.318;19.874;2022-08-21T13:04:49;99703.37;;;21.90;100.00
62942;BME280;49042;47.318;19.874;2022-08-21T13:07:51;99693.41;;;21.98;97.74
62942;BME280;49042;47.318;19.874;2022-08-21T13:11:03;99698.28;;;22.14;96.48
62942;BME280;49042;47.318;19.874;2022-08-21T13:14:35;99695.69;;;22.72;93.77
62942;BME280;49042;47.318;19.874;2022-08-21T13:17:48;99700.03;;;22.45;93.14
62942;BME280;49042;47.318;19.874;2022-08-21T13:21:01;99689.91;;;22.28;93.06
62942;BME280;49042;47.318;19.874;2022-08-21T13:24:20;99693.53;;;22.25;91.72
62942;BME280;49042;47.318;19.874;2022-08-21T13:27:44;99688.25;;;22.24;93.62
62942;BME280;49042;47.318;19.874;2022-08-21T13:30:50;99683.50;;;22.35;92.08
62942;BME280;49042;47.318;19.874;2022-08-21T13:33:53;99682.44;;;22.41;89.78
62942;BME280;49042;47.318;19.874;2022-08-21T13:36:59;99682.06;;;22.54;89.79
62942;BME280;49042;47.318;19.874;2022-08-21T13:40:02;99682.25;;;22.17;87.40
62942;BME280;49042;47.318;19.874;2022-08-21T13:43:11;99678.94;;;22.09;87.61
62942;BME280;49042;47.318;19.874;2022-08-21T13:46:14;99682.16;;;22.20;89.56
62942;BME280;49042;47.318;19.874;2022-08-21T13:49:18;99683.53;;;22.34;89.89
62942;BME280;49042;47.318;19.874;2022-08-21T13:52:24;99684.19;;;22.42;88.69
62942;BME280;49042;47.318;19.874;2022-08-21T13:55:36;99685.72;;;22.50;85.45
62942;BME280;49042;47.318;19.874;2022-08-21T13:58:44;99680.50;;;22.16;87.62
62942;BME280;49042;47.318;19.874;2022-08-21T14:01:56;99690.53;;;22.06;88.41
62942;BME280;49042;47.318;19.874;2022-08-21T14:05:02;99689.34;;;22.17;86.98
62942;BME280;49042;47.318;19.874;2022-08-21T14:08:08;99689.03;;;22.28;85.97
62942;BME280;49042;47.318;19.874;2022-08-21T14:11:13;99687.09;;;22.02;92.32
62942;BME280;49042;47.318;19.874;2022-08-21T14:17:28;99689.50;;;22.12;94.30
62942;BME280;49042;47.318;19.874;2022-08-21T14:20:35;99684.50;;;22.01;98.03
62942;BME280;49042;47.318;19.874;2022-08-21T14:23:37;99678.34;;;21.99;96.41
62942;BME280;49042;47.318;19.874;2022-08-21T14:26:55;99670.84;;;21.81;93.14
62942;BME280;49042;47.318;19.874;2022-08-21T14:29:58;99672.34;;;21.92;94.08
62942;BME280;49042;47.318;19.874;2022-08-21T14:33:03;99668.06;;;21.86;89.40
62942;BME280;49042;47.318;19.874;2022-08-21T14:36:06;99680.81;;;22.05;89.91
62942;BME280;49042;47.318;19.874;2022-08-21T14:39:08;99687.97;;;22.03;91.56
62942;BME280;49042;47.318;19.874;2022-08-21T14:42:10;99682.75;;;22.00;92.01
62942;BME280;49042;47.318;19.874;2022-08-21T14:45:23;99681.97;;;21.96;91.42
62942;BME280;49042;47.318;19.874;2022-08-21T14:48:28;99681.19;;;21.91;90.04
62942;BME280;49042;47.318;19.874;2022-08-21T14:51:30;99677.91;;;21.82;90.47
62942;BME280;49042;47.318;19.874;2022-08-21T14:54:32;99683.00;;;21.90;91.86
62942;BME280;49042;47.318;19.874;2022-08-21T14:57:34;99683.16;;;21.84;91.23
62942;BME280;49042;47.318;19.874;2022-08-21T15:00:36;99685.31;;;22.03;90.05
62942;BME280;49042;47.318;19.874;2022-08-21T15:03:39;99682.13;;;21.90;91.94
62942;BME280;49042;47.318;19.874;2022-08-21T15:06:40;99690.28;;;21.83;92.89
62942;BME280;49042;47.318;19.874;2022-08-21T15:09:43;99690.97;;;21.90;93.03
62942;BME280;49042;47.318;19.874;2022-08-21T15:12:44;99689.69;;;21.72;95.56
62942;BME280;49042;47.318;19.874;2022-08-21T15:15:48;99684.47;;;21.69;95.02
62942;BME280;49042;47.318;19.874;2022-08-21T15:18:51;99691.97;;;21.86;93.71
62942;BME280;49042;47.318;19.874;2022-08-21T15:21:53;99686.50;;;21.91;93.92
62942;BME280;49042;47.318;19.874;2022-08-21T15:24:55;99691.78;;;21.94;94.51
62942;BME280;49042;47.318;19.874;2022-08-21T15:27:56;99695.19;;;21.66;98.68
62942;BME280;49042;47.318;19.874;2022-08-21T15:30:59;99700.50;;;21.66;98.07
62942;BME280;49042;47.318;19.874;2022-08-21T15:34:02;99691.19;;;21.49;100.00
62942;BME280;49042;47.318;19.874;2022-08-21T15:37:03;99697.72;;;21.35;100.00
62942;BME280;49042;47.318;19.874;2022-08-21T15:40:10;99696.06;;;21.31;100.00
62942;BME280;49042;47.318;19.874;2022-08-21T15:43:42;99693.22;;;21.39;100.00
62942;BME280;49042;47.318;19.874;2022-08-21T15:46:44;99688.50;;;21.15;100.00
62942;BME280;49042;47.318;19.874;2022-08-21T15:49:46;99690.59;;;21.01;100.00
62942;BME280;49042;47.318;19.874;2022-08-21T15:52:48;99683.44;;;21.04;100.00
62942;BME280;49042;47.318;19.874;2022-08-21T15:55:50;99670.56;;;20.89;100.00
62942;BME280;49042;47.318;19.874;2022-08-21T15:59:00;99669.38;;;21.02;100.00
62942;BME280;49042;47.318;19.874;2022-08-21T16:02:02;99674.41;;;21.13;100.00
62942;BME280;49042;47.318;19.874;2022-08-21T16:05:05;99673.22;;;21.25;100.00
62942;BME280;49042;47.318;19.874;2022-08-21T16:08:07;99672.47;;;20.82;100.00
62942;BME280;49042;47.318;19.874;2022-08-21T16:11:13;99672.53;;;20.80;100.00
62942;BME280;49042;47.318;19.874;2022-08-21T16:14:16;99671.69;;;20.78;100.00
62942;BME280;49042;47.318;19.874;2022-08-21T16:17:18;99669.31;;;20.67;100.00
62942;BME280;49042;47.318;19.874;2022-08-21T16:20:26;99663.16;;;20.67;100.00
62942;BME280;49042;47.318;19.874;2022-08-21T16:23:28;99664.75;;;20.74;100.00
62942;BME280;49042;47.318;19.874;2022-08-21T16:26:30;99654.19;;;20.71;100.00
62942;BME280;49042;47.318;19.874;2022-08-21T16:29:35;99663.34;;;20.57;100.00
62942;BME280;49042;47.318;19.874;2022-08-21T16:32:38;99655.44;;;20.56;100.00
62942;BME280;49042;47.318;19.874;2022-08-21T16:35:39;99654.50;;;20.58;100.00
62942;BME280;49042;47.318;19.874;2022-08-21T16:38:42;99652.06;;;20.49;100.00
62942;BME280;49042;47.318;19.874;2022-08-21T16:41:44;99655.72;;;20.43;100.00
62942;BME280;49042;47.318;19.874;2022-08-21T16:44:46;99656.41;;;20.53;100.00
62942;BME280;49042;47.318;19.874;2022-08-21T16:47:49;99660.69;;;20.57;100.00
62942;BME280;49042;47.318;19.874;2022-08-21T16:50:51;99656.41;;;20.51;100.00
62942;BME280;49042;47.318;19.874;2022-08-21T16:53:53;99661.38;;;20.67;100.00
62942;BME280;49042;47.318;19.874;2022-08-21T16:56:56;99658.03;;;20.57;100.00
62942;BME280;49042;47.318;19.874;2022-08-21T16:59:58;99658.13;;;20.54;100.00
62942;BME280;49042;47.318;19.874;2022-08-21T17:02:59;99657.28;;;20.52;100.00
62942;BME280;49042;47.318;19.874;2022-08-21T17:06:01;99664.75;;;20.34;100.00
62942;BME280;49042;47.318;19.874;2022-08-21T17:09:03;99654.88;;;20.41;100.00